sensor_id;sensor_type;location;lat;lon;timestamp;P1;P2;P0
72031;PMS5003;49185;42.320;23.198;2024-02-15T00:00:21;2788.33;2788.33;2788.33
72031;PMS5003;49185;42.320;23.198;2024-02-15T00:02:47;2768.33;2768.33;2768.33
72031;PMS5003;49185;42.320;23.198;2024-02-15T00:05:12;2773.33;2773.33;2773.33
72031;PMS5003;49185;42.320;23.198;2024-02-15T00:07:38;2790.00;2790.00;2790.00
72031;PMS5003;49185;42.320;23.198;2024-02-15T00:10:04;2788.00;2788.00;2788.00
72031;PMS5003;49185;42.320;23.198;2024-02-15T00:12:30;2803.50;2803.50;2803.50
72031;PMS5003;49185;42.320;23.198;2024-02-15T00:14:56;2794.00;2794.00;2794.00
72031;PMS5003;49185;42.320;23.198;2024-02-15T00:17:21;2800.67;2800.67;2800.67
72031;PMS5003;49185;42.320;23.198;2024-02-15T00:19:47;2803.33;2803.33;2803.33
72031;PMS5003;49185;42.320;23.198;2024-02-15T00:22:12;2777.33;2777.33;2777.33
72031;PMS5003;49185;42.320;23.198;2024-02-15T00:24:38;2800.67;2800.67;2800.67
72031;PMS5003;49185;42.320;23.198;2024-02-15T00:27:04;2797.00;2797.00;2797.00
72031;PMS5003;49185;42.320;23.198;2024-02-15T00:29:30;2805.00;2805.00;2805.00
72031;PMS5003;49185;42.320;23.198;2024-02-15T00:31:55;2797.00;2797.00;2797.00
72031;PMS5003;49185;42.320;23.198;2024-02-15T00:34:21;2785.67;2785.67;2785.67
72031;PMS5003;49185;42.320;23.198;2024-02-15T00:36:47;2788.33;2788.33;2788.33
72031;PMS5003;49185;42.320;23.198;2024-02-15T00:39:12;2797.00;2797.00;2797.00
72031;PMS5003;49185;42.320;23.198;2024-02-15T00:41:38;2778.67;2778.67;2778.67
72031;PMS5003;49185;42.320;23.198;2024-02-15T00:44:03;2771.50;2771.50;2771.50
72031;PMS5003;49185;42.320;23.198;2024-02-15T00:46:29;2774.67;2774.67;2774.67
72031;PMS5003;49185;42.320;23.198;2024-02-15T00:48:55;2767.33;2767.33;2767.33
72031;PMS5003;49185;42.320;23.198;2024-02-15T00:51:20;2788.00;2788.00;2788.00
72031;PMS5003;49185;42.320;23.198;2024-02-15T00:53:46;2771.50;2771.50;2771.50
72031;PMS5003;49185;42.320;23.198;2024-02-15T00:56:12;2777.00;2777.00;2777.00
72031;PMS5003;49185;42.320;23.198;2024-02-15T00:58:37;2778.67;2778.67;2778.67
72031;PMS5003;49185;42.320;23.198;2024-02-15T01:01:03;2783.00;2783.00;2783.00
72031;PMS5003;49185;42.320;23.198;2024-02-15T01:03:29;2791.00;2791.00;2791.00
72031;PMS5003;49185;42.320;23.198;2024-02-15T01:05:55;2778.67;2778.67;2778.67
72031;PMS5003;49185;42.320;23.198;2024-02-15T01:08:20;2774.67;2774.67;2774.67
72031;PMS5003;49185;42.320;23.198;2024-02-15T01:10:46;2790.00;2790.00;2790.00
72031;PMS5003;49185;42.320;23.198;2024-02-15T01:13:11;2784.33;2784.33;2784.33
72031;PMS5003;49185;42.320;23.198;2024-02-15T01:15:37;2785.67;2785.67;2785.67
72031;PMS5003;49185;42.320;23.198;2024-02-15T01:18:03;2785.67;2785.67;2785.67
72031;PMS5003;49185;42.320;23.198;2024-02-15T01:20:28;2790.00;2790.00;2790.00
72031;PMS5003;49185;42.320;23.198;2024-02-15T01:22:54;2785.67;2785.67;2785.67
72031;PMS5003;49185;42.320;23.198;2024-02-15T01:25:20;2769.33;2769.33;2769.33
72031;PMS5003;49185;42.320;23.198;2024-02-15T01:27:45;2783.00;2783.00;2783.00
72031;PMS5003;49185;42.320;23.198;2024-02-15T01:30:11;2785.67;2785.67;2785.67
72031;PMS5003;49185;42.320;23.198;2024-02-15T01:32:37;2784.50;2784.50;2784.50
72031;PMS5003;49185;42.320;23.198;2024-02-15T01:35:02;2780.67;2780.67;2780.67
72031;PMS5003;49185;42.320;23.198;2024-02-15T01:37:28;2799.50;2799.50;2799.50
72031;PMS5003;49185;42.320;23.198;2024-02-15T01:39:54;2780.67;2780.67;2780.67
72031;PMS5003;49185;42.320;23.198;2024-02-15T01:42:20;2780.67;2780.67;2780.67
72031;PMS5003;49185;42.320;23.198;2024-02-15T01:44:45;2793.00;2793.00;2793.00
72031;PMS5003;49185;42.320;23.198;2024-02-15T01:47:11;2778.67;2778.67;2778.67
72031;PMS5003;49185;42.320;23.198;2024-02-15T01:49:36;2774.67;2774.67;2774.67
72031;PMS5003;49185;42.320;23.198;2024-02-15T01:52:02;2788.33;2788.33;2788.33
72031;PMS5003;49185;42.320;23.198;2024-02-15T01:54:31;2792.00;2792.00;2792.00
72031;PMS5003;49185;42.320;23.198;2024-02-15T01:56:57;2775.00;2775.00;2775.00
72031;PMS5003;49185;42.320;23.198;2024-02-15T01:59:23;2774.67;2774.67;2774.67
72031;PMS5003;49185;42.320;23.198;2024-02-15T02:01:50;2773.00;2773.00;2773.00
72031;PMS5003;49185;42.320;23.198;2024-02-15T02:04:15;2779.00;2779.00;2779.00
72031;PMS5003;49185;42.320;23.198;2024-02-15T02:06:41;2788.33;2788.33;2788.33
72031;PMS5003;49185;42.320;23.198;2024-02-15T02:09:13;2789.67;2789.67;2789.67
72031;PMS5003;49185;42.320;23.198;2024-02-15T02:11:38;2779.00;2779.00;2779.00
72031;PMS5003;49185;42.320;23.198;2024-02-15T02:14:04;2767.33;2767.33;2767.33
72031;PMS5003;49185;42.320;23.198;2024-02-15T02:16:30;2762.33;2762.33;2762.33
72031;PMS5003;49185;42.320;23.198;2024-02-15T02:18:57;2779.00;2779.00;2779.00
72031;PMS5003;49185;42.320;23.198;2024-02-15T02:21:24;2779.00;2779.00;2779.00
72031;PMS5003;49185;42.320;23.198;2024-02-15T02:23:57;2779.00;2779.00;2779.00
72031;PMS5003;49185;42.320;23.198;2024-02-15T02:26:24;2760.50;2760.50;2760.50
72031;PMS5003;49185;42.320;23.198;2024-02-15T02:28:50;2775.00;2775.00;2775.00
72031;PMS5003;49185;42.320;23.198;2024-02-15T02:31:16;2766.00;2766.00;2766.00
72031;PMS5003;49185;42.320;23.198;2024-02-15T02:33:42;2767.33;2767.33;2767.33
72031;PMS5003;49185;42.320;23.198;2024-02-15T02:36:16;2771.50;2771.50;2771.50
72031;PMS5003;49185;42.320;23.198;2024-02-15T02:38:41;2777.00;2777.00;2777.00
72031;PMS5003;49185;42.320;23.198;2024-02-15T02:41:07;2760.50;2760.50;2760.50
72031;PMS5003;49185;42.320;23.198;2024-02-15T02:43:32;2769.33;2769.33;2769.33
72031;PMS5003;49185;42.320;23.198;2024-02-15T02:45:58;2759.67;2759.67;2759.67
72031;PMS5003;49185;42.320;23.198;2024-02-15T02:48:23;2762.33;2762.33;2762.33
72031;PMS5003;49185;42.320;23.198;2024-02-15T02:50:49;2755.33;2755.33;2755.33
72031;PMS5003;49185;42.320;23.198;2024-02-15T02:53:15;2777.00;2777.00;2777.00
72031;PMS5003;49185;42.320;23.198;2024-02-15T02:55:41;2749.50;2749.50;2749.50
72031;PMS5003;49185;42.320;23.198;2024-02-15T02:58:07;2755.00;2755.00;2755.00
72031;PMS5003;49185;42.320;23.198;2024-02-15T03:00:32;2739.67;2739.67;2739.67
72031;PMS5003;49185;42.320;23.198;2024-02-15T03:02:58;2734.33;2734.33;2734.33
72031;PMS5003;49185;42.320;23.198;2024-02-15T03:05:23;2752.67;2752.67;2752.67
72031;PMS5003;49185;42.320;23.198;2024-02-15T03:07:49;2741.67;2741.67;2741.67
72031;PMS5003;49185;42.320;23.198;2024-02-15T03:10:15;2756.33;2756.33;2756.33
72031;PMS5003;49185;42.320;23.198;2024-02-15T03:12:40;2746.00;2746.00;2746.00
72031;PMS5003;49185;42.320;23.198;2024-02-15T03:15:06;2764.00;2764.00;2764.00
72031;PMS5003;49185;42.320;23.198;2024-02-15T03:17:32;2753.00;2753.00;2753.00
72031;PMS5003;49185;42.320;23.198;2024-02-15T03:19:58;2747.33;2747.33;2747.33
72031;PMS5003;49185;42.320;23.198;2024-02-15T03:22:24;2751.50;2751.50;2751.50
72031;PMS5003;49185;42.320;23.198;2024-02-15T03:24:49;2766.00;2766.00;2766.00
72031;PMS5003;49185;42.320;23.198;2024-02-15T03:27:15;2766.33;2766.33;2766.33
72031;PMS5003;49185;42.320;23.198;2024-02-15T03:29:40;2748.67;2748.67;2748.67
72031;PMS5003;49185;42.320;23.198;2024-02-15T03:32:05;2751.33;2751.33;2751.33
72031;PMS5003;49185;42.320;23.198;2024-02-15T03:34:31;2762.00;2762.00;2762.00
72031;PMS5003;49185;42.320;23.198;2024-02-15T03:36:57;2760.50;2760.50;2760.50
72031;PMS5003;49185;42.320;23.198;2024-02-15T03:39:23;2753.00;2753.00;2753.00
72031;PMS5003;49185;42.320;23.198;2024-02-15T03:41:49;2762.00;2762.00;2762.00
72031;PMS5003;49185;42.320;23.198;2024-02-15T03:44:15;2764.00;2764.00;2764.00
72031;PMS5003;49185;42.320;23.198;2024-02-15T03:46:40;2745.33;2745.33;2745.33
72031;PMS5003;49185;42.320;23.198;2024-02-15T03:49:05;2769.33;2769.33;2769.33
72031;PMS5003;49185;42.320;23.198;2024-02-15T03:51:31;2755.33;2755.33;2755.33
72031;PMS5003;49185;42.320;23.198;2024-02-15T03:53:56;2755.33;2755.33;2755.33
72031;PMS5003;49185;42.320;23.198;2024-02-15T03:56:22;2752.67;2752.67;2752.67
72031;PMS5003;49185;42.320;23.198;2024-02-15T03:58:47;2769.33;2769.33;2769.33
72031;PMS5003;49185;42.320;23.198;2024-02-15T04:01:12;2770.67;2770.67;2770.67
72031;PMS5003;49185;42.320;23.198;2024-02-15T04:03:38;2767.33;2767.33;2767.33
72031;PMS5003;49185;42.320;23.198;2024-02-15T04:06:03;2755.33;2755.33;2755.33
72031;PMS5003;49185;42.320;23.198;2024-02-15T04:08:29;2751.33;2751.33;2751.33
72031;PMS5003;49185;42.320;23.198;2024-02-15T04:10:54;2763.67;2763.67;2763.67
72031;PMS5003;49185;42.320;23.198;2024-02-15T04:13:19;2748.67;2748.67;2748.67
72031;PMS5003;49185;42.320;23.198;2024-02-15T04:15:45;2759.67;2759.67;2759.67
72031;PMS5003;49185;42.320;23.198;2024-02-15T04:18:10;2762.33;2762.33;2762.33
72031;PMS5003;49185;42.320;23.198;2024-02-15T04:20:35;2758.33;2758.33;2758.33
72031;PMS5003;49185;42.320;23.198;2024-02-15T04:23:01;2756.33;2756.33;2756.33
72031;PMS5003;49185;42.320;23.198;2024-02-15T04:25:26;2758.33;2758.33;2758.33
72031;PMS5003;49185;42.320;23.198;2024-02-15T04:27:52;2741.67;2741.67;2741.67
72031;PMS5003;49185;42.320;23.198;2024-02-15T04:30:17;2748.67;2748.67;2748.67
72031;PMS5003;49185;42.320;23.198;2024-02-15T04:32:43;2741.67;2741.67;2741.67
72031;PMS5003;49185;42.320;23.198;2024-02-15T04:35:08;2744.33;2744.33;2744.33
72031;PMS5003;49185;42.320;23.198;2024-02-15T04:37:33;2726.00;2726.00;2726.00
72031;PMS5003;49185;42.320;23.198;2024-02-15T04:39:59;2723.33;2723.33;2723.33
72031;PMS5003;49185;42.320;23.198;2024-02-15T04:42:25;2738.50;2738.50;2738.50
72031;PMS5003;49185;42.320;23.198;2024-02-15T04:44:50;2723.33;2723.33;2723.33
72031;PMS5003;49185;42.320;23.198;2024-02-15T04:47:16;2708.33;2708.33;2708.33
72031;PMS5003;49185;42.320;23.198;2024-02-15T04:49:41;2738.33;2738.33;2738.33
72031;PMS5003;49185;42.320;23.198;2024-02-15T04:52:07;2737.00;2737.00;2737.00
72031;PMS5003;49185;42.320;23.198;2024-02-15T04:54:33;2729.50;2729.50;2729.50
72031;PMS5003;49185;42.320;23.198;2024-02-15T04:56:59;2727.33;2727.33;2727.33
72031;PMS5003;49185;42.320;23.198;2024-02-15T04:59:24;2740.50;2740.50;2740.50
72031;PMS5003;49185;42.320;23.198;2024-02-15T05:01:50;2726.00;2726.00;2726.00
72031;PMS5003;49185;42.320;23.198;2024-02-15T05:04:15;2738.33;2738.33;2738.33
72031;PMS5003;49185;42.320;23.198;2024-02-15T05:06:40;2722.33;2722.33;2722.33
72031;PMS5003;49185;42.320;23.198;2024-02-15T05:09:06;2709.33;2709.33;2709.33
72031;PMS5003;49185;42.320;23.198;2024-02-15T05:11:31;2734.33;2734.33;2734.33
72031;PMS5003;49185;42.320;23.198;2024-02-15T05:13:57;2727.33;2727.33;2727.33
72031;PMS5003;49185;42.320;23.198;2024-02-15T05:16:22;2745.33;2745.33;2745.33
72031;PMS5003;49185;42.320;23.198;2024-02-15T05:18:47;2734.33;2734.33;2734.33
72031;PMS5003;49185;42.320;23.198;2024-02-15T05:21:13;2748.67;2748.67;2748.67
72031;PMS5003;49185;42.320;23.198;2024-02-15T05:23:38;2734.33;2734.33;2734.33
72031;PMS5003;49185;42.320;23.198;2024-02-15T05:26:04;2753.00;2753.00;2753.00
72031;PMS5003;49185;42.320;23.198;2024-02-15T05:28:30;2755.33;2755.33;2755.33
72031;PMS5003;49185;42.320;23.198;2024-02-15T05:31:08;2752.67;2752.67;2752.67
72031;PMS5003;49185;42.320;23.198;2024-02-15T05:33:34;2742.50;2742.50;2742.50
72031;PMS5003;49185;42.320;23.198;2024-02-15T05:36:00;2748.67;2748.67;2748.67
72031;PMS5003;49185;42.320;23.198;2024-02-15T05:38:25;2748.67;2748.67;2748.67
72031;PMS5003;49185;42.320;23.198;2024-02-15T05:40:51;2755.00;2755.00;2755.00
72031;PMS5003;49185;42.320;23.198;2024-02-15T05:43:17;2738.33;2738.33;2738.33
72031;PMS5003;49185;42.320;23.198;2024-02-15T05:45:42;2739.67;2739.67;2739.67
72031;PMS5003;49185;42.320;23.198;2024-02-15T05:48:08;2757.00;2757.00;2757.00
72031;PMS5003;49185;42.320;23.198;2024-02-15T05:50:33;2757.00;2757.00;2757.00
72031;PMS5003;49185;42.320;23.198;2024-02-15T05:52:59;2755.33;2755.33;2755.33
72031;PMS5003;49185;42.320;23.198;2024-02-15T05:55:25;2757.00;2757.00;2757.00
72031;PMS5003;49185;42.320;23.198;2024-02-15T05:57:50;2758.33;2758.33;2758.33
72031;PMS5003;49185;42.320;23.198;2024-02-15T06:00:16;2756.33;2756.33;2756.33
72031;PMS5003;49185;42.320;23.198;2024-02-15T06:02:41;2751.50;2751.50;2751.50
72031;PMS5003;49185;42.320;23.198;2024-02-15T06:05:07;2756.33;2756.33;2756.33
72031;PMS5003;49185;42.320;23.198;2024-02-15T06:07:32;2759.67;2759.67;2759.67
72031;PMS5003;49185;42.320;23.198;2024-02-15T06:09:58;2766.00;2766.00;2766.00
72031;PMS5003;49185;42.320;23.198;2024-02-15T06:12:24;2748.67;2748.67;2748.67
72031;PMS5003;49185;42.320;23.198;2024-02-15T06:14:49;2759.67;2759.67;2759.67
72031;PMS5003;49185;42.320;23.198;2024-02-15T06:17:15;2751.33;2751.33;2751.33
72031;PMS5003;49185;42.320;23.198;2024-02-15T06:19:40;2746.67;2746.67;2746.67
72031;PMS5003;49185;42.320;23.198;2024-02-15T06:22:06;2762.33;2762.33;2762.33
72031;PMS5003;49185;42.320;23.198;2024-02-15T06:24:31;2763.67;2763.67;2763.67
72031;PMS5003;49185;42.320;23.198;2024-02-15T06:26:57;2764.67;2764.67;2764.67
72031;PMS5003;49185;42.320;23.198;2024-02-15T06:29:22;2767.33;2767.33;2767.33
72031;PMS5003;49185;42.320;23.198;2024-02-15T06:31:48;2758.50;2758.50;2758.50
72031;PMS5003;49185;42.320;23.198;2024-02-15T06:34:13;2774.67;2774.67;2774.67
72031;PMS5003;49185;42.320;23.198;2024-02-15T06:36:48;2762.33;2762.33;2762.33
72031;PMS5003;49185;42.320;23.198;2024-02-15T06:39:15;2768.00;2768.00;2768.00
72031;PMS5003;49185;42.320;23.198;2024-02-15T06:41:40;2774.67;2774.67;2774.67
72031;PMS5003;49185;42.320;23.198;2024-02-15T06:44:05;2770.67;2770.67;2770.67
72031;PMS5003;49185;42.320;23.198;2024-02-15T06:46:31;2770.67;2770.67;2770.67
72031;PMS5003;49185;42.320;23.198;2024-02-15T06:48:56;2777.33;2777.33;2777.33
72031;PMS5003;49185;42.320;23.198;2024-02-15T06:51:22;2795.67;2795.67;2795.67
72031;PMS5003;49185;42.320;23.198;2024-02-15T06:53:47;2781.67;2781.67;2781.67
72031;PMS5003;49185;42.320;23.198;2024-02-15T06:56:12;2785.67;2785.67;2785.67
72031;PMS5003;49185;42.320;23.198;2024-02-15T06:58:38;2781.67;2781.67;2781.67
72031;PMS5003;49185;42.320;23.198;2024-02-15T07:01:03;2808.00;2808.00;2808.00
72031;PMS5003;49185;42.320;23.198;2024-02-15T07:03:29;2812.00;2812.00;2812.00
72031;PMS5003;49185;42.320;23.198;2024-02-15T07:05:54;2812.00;2812.00;2812.00
72031;PMS5003;49185;42.320;23.198;2024-02-15T07:08:19;2816.00;2816.00;2816.00
72031;PMS5003;49185;42.320;23.198;2024-02-15T07:10:45;2822.67;2822.67;2822.67
72031;PMS5003;49185;42.320;23.198;2024-02-15T07:13:10;2812.00;2812.00;2812.00
72031;PMS5003;49185;42.320;23.198;2024-02-15T07:15:35;2833.67;2833.67;2833.67
72031;PMS5003;49185;42.320;23.198;2024-02-15T07:18:01;2818.67;2818.67;2818.67
72031;PMS5003;49185;42.320;23.198;2024-02-15T07:20:26;2827.00;2827.00;2827.00
72031;PMS5003;49185;42.320;23.198;2024-02-15T07:22:51;2837.67;2837.67;2837.67
72031;PMS5003;49185;42.320;23.198;2024-02-15T07:25:17;2837.67;2837.67;2837.67
72031;PMS5003;49185;42.320;23.198;2024-02-15T07:27:42;2839.00;2839.00;2839.00
72031;PMS5003;49185;42.320;23.198;2024-02-15T07:30:08;2843.00;2843.00;2843.00
72031;PMS5003;49185;42.320;23.198;2024-02-15T07:32:33;2862.33;2862.33;2862.33
72031;PMS5003;49185;42.320;23.198;2024-02-15T07:34:59;2869.00;2869.00;2869.00
72031;PMS5003;49185;42.320;23.198;2024-02-15T07:37:24;2853.00;2853.00;2853.00
72031;PMS5003;49185;42.320;23.198;2024-02-15T07:39:49;2866.33;2866.33;2866.33
72031;PMS5003;49185;42.320;23.198;2024-02-15T07:42:15;2850.33;2850.33;2850.33
72031;PMS5003;49185;42.320;23.198;2024-02-15T07:44:40;2853.00;2853.00;2853.00
72031;PMS5003;49185;42.320;23.198;2024-02-15T07:47:05;2854.33;2854.33;2854.33
72031;PMS5003;49185;42.320;23.198;2024-02-15T07:49:31;2858.33;2858.33;2858.33
72031;PMS5003;49185;42.320;23.198;2024-02-15T07:51:56;2877.00;2877.00;2877.00
72031;PMS5003;49185;42.320;23.198;2024-02-15T07:54:22;2877.00;2877.00;2877.00
72031;PMS5003;49185;42.320;23.198;2024-02-15T07:56:48;2909.00;2909.00;2909.00
72031;PMS5003;49185;42.320;23.198;2024-02-15T07:59:14;2909.00;2909.00;2909.00
72031;PMS5003;49185;42.320;23.198;2024-02-15T08:01:43;2945.50;2945.50;2945.50
72031;PMS5003;49185;42.320;23.198;2024-02-15T08:04:08;2923.50;2923.50;2923.50
72031;PMS5003;49185;42.320;23.198;2024-02-15T08:06:34;2932.00;2932.00;2932.00
72031;PMS5003;49185;42.320;23.198;2024-02-15T08:08:59;2968.00;2968.00;2968.00
72031;PMS5003;49185;42.320;23.198;2024-02-15T08:11:24;2971.33;2971.33;2971.33
72031;PMS5003;49185;42.320;23.198;2024-02-15T08:13:50;2955.67;2955.67;2955.67
72031;PMS5003;49185;42.320;23.198;2024-02-15T08:16:18;2963.00;2963.00;2963.00
72031;PMS5003;49185;42.320;23.198;2024-02-15T08:18:44;3012.00;3012.00;3012.00
72031;PMS5003;49185;42.320;23.198;2024-02-15T08:21:10;3038.50;3038.50;3038.50
72031;PMS5003;49185;42.320;23.198;2024-02-15T08:23:35;3029.00;3029.00;3029.00
72031;PMS5003;49185;42.320;23.198;2024-02-15T08:26:01;3030.67;3030.67;3030.67
72031;PMS5003;49185;42.320;23.198;2024-02-15T08:28:27;3036.00;3036.00;3036.00
72031;PMS5003;49185;42.320;23.198;2024-02-15T08:30:53;3043.33;3043.33;3043.33
72031;PMS5003;49185;42.320;23.198;2024-02-15T08:33:20;3036.00;3036.00;3036.00
72031;PMS5003;49185;42.320;23.198;2024-02-15T08:35:45;3079.33;3079.33;3079.33
72031;PMS5003;49185;42.320;23.198;2024-02-15T08:38:10;3110.00;3110.00;3110.00
72031;PMS5003;49185;42.320;23.198;2024-02-15T08:40:36;3081.00;3081.00;3081.00
72031;PMS5003;49185;42.320;23.198;2024-02-15T08:43:01;3091.67;3091.67;3091.67
72031;PMS5003;49185;42.320;23.198;2024-02-15T08:45:27;3120.50;3120.50;3120.50
72031;PMS5003;49185;42.320;23.198;2024-02-15T08:47:52;3129.00;3129.00;3129.00
72031;PMS5003;49185;42.320;23.198;2024-02-15T08:50:18;3146.33;3146.33;3146.33
72031;PMS5003;49185;42.320;23.198;2024-02-15T08:52:44;3163.00;3163.00;3163.00
72031;PMS5003;49185;42.320;23.198;2024-02-15T08:55:10;3155.50;3155.50;3155.50
72031;PMS5003;49185;42.320;23.198;2024-02-15T08:57:36;3155.50;3155.50;3155.50
72031;PMS5003;49185;42.320;23.198;2024-02-15T09:00:05;3155.50;3155.50;3155.50
72031;PMS5003;49185;42.320;23.198;2024-02-15T09:02:31;3151.00;3151.00;3151.00
72031;PMS5003;49185;42.320;23.198;2024-02-15T09:04:56;3127.33;3127.33;3127.33
72031;PMS5003;49185;42.320;23.198;2024-02-15T09:07:22;3118.33;3118.33;3118.33
72031;PMS5003;49185;42.320;23.198;2024-02-15T09:09:48;3099.33;3099.33;3099.33
72031;PMS5003;49185;42.320;23.198;2024-02-15T09:12:13;3106.50;3106.50;3106.50
72031;PMS5003;49185;42.320;23.198;2024-02-15T09:14:39;3113.33;3113.33;3113.33
72031;PMS5003;49185;42.320;23.198;2024-02-15T09:17:05;3082.67;3082.67;3082.67
72031;PMS5003;49185;42.320;23.198;2024-02-15T09:19:30;3077.67;3077.67;3077.67
72031;PMS5003;49185;42.320;23.198;2024-02-15T09:21:56;3072.00;3072.00;3072.00
72031;PMS5003;49185;42.320;23.198;2024-02-15T09:24:21;3049.67;3049.67;3049.67
72031;PMS5003;49185;42.320;23.198;2024-02-15T09:26:47;3076.33;3076.33;3076.33
72031;PMS5003;49185;42.320;23.198;2024-02-15T09:29:13;3065.00;3065.00;3065.00
72031;PMS5003;49185;42.320;23.198;2024-02-15T09:31:38;3090.33;3090.33;3090.33
72031;PMS5003;49185;42.320;23.198;2024-02-15T09:34:04;3099.33;3099.33;3099.33
72031;PMS5003;49185;42.320;23.198;2024-02-15T09:36:33;3104.33;3104.33;3104.33
72031;PMS5003;49185;42.320;23.198;2024-02-15T09:38:59;3088.00;3088.00;3088.00
72031;PMS5003;49185;42.320;23.198;2024-02-15T09:41:24;3138.33;3138.33;3138.33
72031;PMS5003;49185;42.320;23.198;2024-02-15T09:43:50;3108.33;3108.33;3108.33
72031;PMS5003;49185;42.320;23.198;2024-02-15T09:46:15;3132.33;3132.33;3132.33
72031;PMS5003;49185;42.320;23.198;2024-02-15T09:48:40;3115.00;3115.00;3115.00
72031;PMS5003;49185;42.320;23.198;2024-02-15T09:51:14;3153.50;3153.50;3153.50
72031;PMS5003;49185;42.320;23.198;2024-02-15T09:53:43;3160.50;3160.50;3160.50
72031;PMS5003;49185;42.320;23.198;2024-02-15T09:56:09;3141.50;3141.50;3141.50
72031;PMS5003;49185;42.320;23.198;2024-02-15T09:58:37;3115.50;3115.50;3115.50
72031;PMS5003;49185;42.320;23.198;2024-02-15T10:01:03;3157.33;3157.33;3157.33
72031;PMS5003;49185;42.320;23.198;2024-02-15T10:03:29;3177.50;3177.50;3177.50
72031;PMS5003;49185;42.320;23.198;2024-02-15T10:05:55;3170.67;3170.67;3170.67
72031;PMS5003;49185;42.320;23.198;2024-02-15T10:08:20;3181.33;3181.33;3181.33
72031;PMS5003;49185;42.320;23.198;2024-02-15T10:10:46;3167.33;3167.33;3167.33
72031;PMS5003;49185;42.320;23.198;2024-02-15T10:13:14;3189.67;3189.67;3189.67
72031;PMS5003;49185;42.320;23.198;2024-02-15T10:15:40;3160.50;3160.50;3160.50
72031;PMS5003;49185;42.320;23.198;2024-02-15T10:18:08;3093.00;3093.00;3093.00
72031;PMS5003;49185;42.320;23.198;2024-02-15T10:20:34;3101.50;3101.50;3101.50
72031;PMS5003;49185;42.320;23.198;2024-02-15T10:25:39;3141.50;3141.50;3141.50
72031;PMS5003;49185;42.320;23.198;2024-02-15T10:28:05;3134.50;3134.50;3134.50
72031;PMS5003;49185;42.320;23.198;2024-02-15T10:30:32;3132.00;3132.00;3132.00
72031;PMS5003;49185;42.320;23.198;2024-02-15T10:32:59;3123.00;3123.00;3123.00
72031;PMS5003;49185;42.320;23.198;2024-02-15T10:35:25;3122.33;3122.33;3122.33
72031;PMS5003;49185;42.320;23.198;2024-02-15T10:37:50;3090.33;3090.33;3090.33
72031;PMS5003;49185;42.320;23.198;2024-02-15T10:40:20;3097.50;3097.50;3097.50
72031;PMS5003;49185;42.320;23.198;2024-02-15T10:42:50;3060.50;3060.50;3060.50
72031;PMS5003;49185;42.320;23.198;2024-02-15T10:45:17;3020.50;3020.50;3020.50
72031;PMS5003;49185;42.320;23.198;2024-02-15T10:47:46;3139.50;3139.50;3139.50
72031;PMS5003;49185;42.320;23.198;2024-02-15T10:50:12;3146.50;3146.50;3146.50
72031;PMS5003;49185;42.320;23.198;2024-02-15T10:52:40;3148.00;3148.00;3148.00
72031;PMS5003;49185;42.320;23.198;2024-02-15T10:55:13;3129.50;3129.50;3129.50
72031;PMS5003;49185;42.320;23.198;2024-02-15T10:57:53;3139.00;3139.00;3139.00
72031;PMS5003;49185;42.320;23.198;2024-02-15T11:00:23;3170.50;3170.50;3170.50
72031;PMS5003;49185;42.320;23.198;2024-02-15T11:02:54;3182.00;3182.00;3182.00
72031;PMS5003;49185;42.320;23.198;2024-02-15T11:05:32;3187.00;3187.00;3187.00
72031;PMS5003;49185;42.320;23.198;2024-02-15T11:07:58;3187.00;3187.00;3187.00
72031;PMS5003;49185;42.320;23.198;2024-02-15T11:10:29;3192.00;3192.00;3192.00
72031;PMS5003;49185;42.320;23.198;2024-02-15T11:12:55;3184.50;3184.50;3184.50
72031;PMS5003;49185;42.320;23.198;2024-02-15T11:15:54;3239.00;3239.00;3239.00
72031;PMS5003;49185;42.320;23.198;2024-02-15T11:21:12;3249.50;3249.50;3249.50
72031;PMS5003;49185;42.320;23.198;2024-02-15T11:23:37;3150.67;3150.67;3150.67
72031;PMS5003;49185;42.320;23.198;2024-02-15T11:26:03;3282.00;3282.00;3282.00
72031;PMS5003;49185;42.320;23.198;2024-02-15T11:30:55;3275.33;3275.33;3275.33
72031;PMS5003;49185;42.320;23.198;2024-02-15T11:33:28;3306.00;3306.00;3306.00
72031;PMS5003;49185;42.320;23.198;2024-02-15T11:36:04;3224.00;3224.00;3224.00
72031;PMS5003;49185;42.320;23.198;2024-02-15T11:38:40;3163.50;3163.50;3163.50
72031;PMS5003;49185;42.320;23.198;2024-02-15T11:41:06;3207.00;3207.00;3207.00
72031;PMS5003;49185;42.320;23.198;2024-02-15T11:46:07;3202.00;3202.00;3202.00
72031;PMS5003;49185;42.320;23.198;2024-02-15T11:48:35;3202.00;3202.00;3202.00
72031;PMS5003;49185;42.320;23.198;2024-02-15T11:51:01;3231.50;3231.50;3231.50
72031;PMS5003;49185;42.320;23.198;2024-02-15T11:53:26;3217.33;3217.33;3217.33
72031;PMS5003;49185;42.320;23.198;2024-02-15T11:55:52;3292.33;3292.33;3292.33
72031;PMS5003;49185;42.320;23.198;2024-02-15T11:58:25;3269.50;3269.50;3269.50
72031;PMS5003;49185;42.320;23.198;2024-02-15T12:00:50;3212.33;3212.33;3212.33
72031;PMS5003;49185;42.320;23.198;2024-02-15T12:03:16;3159.00;3159.00;3159.00
72031;PMS5003;49185;42.320;23.198;2024-02-15T12:05:42;3132.00;3132.00;3132.00
72031;PMS5003;49185;42.320;23.198;2024-02-15T12:08:07;3244.33;3244.33;3244.33
72031;PMS5003;49185;42.320;23.198;2024-02-15T12:10:35;3231.50;3231.50;3231.50
72031;PMS5003;49185;42.320;23.198;2024-02-15T12:13:01;3101.00;3101.00;3101.00
72031;PMS5003;49185;42.320;23.198;2024-02-15T12:15:26;3165.67;3165.67;3165.67
72031;PMS5003;49185;42.320;23.198;2024-02-15T12:17:51;3204.00;3204.00;3204.00
72031;PMS5003;49185;42.320;23.198;2024-02-15T12:20:17;3189.67;3189.67;3189.67
72031;PMS5003;49185;42.320;23.198;2024-02-15T12:22:43;3160.67;3160.67;3160.67
72031;PMS5003;49185;42.320;23.198;2024-02-15T12:25:15;3160.50;3160.50;3160.50
72031;PMS5003;49185;42.320;23.198;2024-02-15T12:27:42;3134.50;3134.50;3134.50
72031;PMS5003;49185;42.320;23.198;2024-02-15T12:30:14;3065.50;3065.50;3065.50
72031;PMS5003;49185;42.320;23.198;2024-02-15T12:32:41;3173.00;3173.00;3173.00
72031;PMS5003;49185;42.320;23.198;2024-02-15T12:35:10;3160.67;3160.67;3160.67